createdAt,value
2019-03-18T00:01:17.563Z,4.14
2019-03-18T00:03:48.884Z,4.13
2019-03-18T00:06:20.087Z,4.07
2019-03-18T00:08:51.408Z,4.12
2019-03-18T00:11:22.763Z,4.17
2019-03-18T00:13:54.082Z,4.16
2019-03-18T00:16:25.473Z,4.12
2019-03-18T00:18:58.153Z,4.08
2019-03-18T00:21:30.010Z,4.09
2019-03-18T00:24:01.869Z,4.11
2019-03-18T00:26:33.479Z,4.04
2019-03-18T00:29:04.775Z,3.99
2019-03-18T00:31:36.079Z,3.97
2019-03-18T00:34:07.392Z,3.96
2019-03-18T00:36:38.719Z,3.98
2019-03-18T00:39:10.056Z,4.01
2019-03-18T00:41:41.400Z,4.03
2019-03-18T00:44:12.687Z,4.04
2019-03-18T00:46:43.883Z,4.06
2019-03-18T00:49:15.065Z,4.04
2019-03-18T00:51:46.361Z,4.03
2019-03-18T00:54:17.679Z,3.98
2019-03-18T00:56:49.059Z,3.96
2019-03-18T00:59:20.356Z,3.85
2019-03-18T01:01:51.661Z,3.85
2019-03-18T01:04:23.024Z,3.83
2019-03-18T01:06:54.374Z,3.76
2019-03-18T01:09:25.645Z,3.77
2019-03-18T01:11:57.238Z,3.77
2019-03-18T01:14:28.527Z,3.83
2019-03-18T01:16:59.923Z,3.73
2019-03-18T01:19:31.148Z,3.70
2019-03-18T01:22:03.190Z,3.77
2019-03-18T01:24:34.965Z,3.68
2019-03-18T01:27:06.728Z,3.61
2019-03-18T01:29:38.569Z,3.63
2019-03-18T01:32:10.121Z,3.71
2019-03-18T01:34:41.485Z,3.67
2019-03-18T01:37:12.809Z,3.67
2019-03-18T01:39:44.042Z,3.70
2019-03-18T01:42:16.882Z,3.75
2019-03-18T01:44:48.344Z,3.72
2019-03-18T01:47:19.653Z,3.70
2019-03-18T01:49:50.888Z,3.70
2019-03-18T01:52:22.156Z,3.66
2019-03-18T01:54:53.426Z,3.61
2019-03-18T01:57:24.666Z,3.53
2019-03-18T01:59:55.875Z,3.47
2019-03-18T02:02:27.097Z,3.43
2019-03-18T02:04:58.419Z,3.36
2019-03-18T02:07:29.706Z,3.24
2019-03-18T02:10:00.955Z,3.03
2019-03-18T02:12:32.237Z,2.90
2019-03-18T02:15:03.764Z,2.88
2019-03-18T02:17:35.206Z,2.66
2019-03-18T02:20:12.210Z,2.60
2019-03-18T02:22:43.621Z,2.52
2019-03-18T02:25:15.025Z,2.44
2019-03-18T02:27:46.354Z,2.44
2019-03-18T02:30:18.897Z,2.48
2019-03-18T02:32:50.283Z,2.44
2019-03-18T02:35:21.540Z,2.37
2019-03-18T02:37:52.813Z,2.32
2019-03-18T02:40:24.135Z,2.28
2019-03-18T02:42:55.498Z,2.31
2019-03-18T02:45:26.864Z,2.33
2019-03-18T02:47:58.193Z,2.28
2019-03-18T02:50:29.563Z,2.28
2019-03-18T02:53:01.932Z,2.34
2019-03-18T02:55:33.590Z,2.33
2019-03-18T02:58:05.024Z,2.29
2019-03-18T03:00:36.345Z,2.38
2019-03-18T03:03:07.662Z,2.45
2019-03-18T03:05:39.023Z,2.50
2019-03-18T03:08:10.293Z,2.58
2019-03-18T03:10:41.557Z,2.56
2019-03-18T03:13:12.828Z,2.64
2019-03-18T03:15:44.010Z,2.66
2019-03-18T03:18:15.396Z,2.53
2019-03-18T03:20:46.702Z,2.49
2019-03-18T03:23:18.041Z,2.42
2019-03-18T03:25:49.409Z,2.36
2019-03-18T03:28:20.658Z,2.36
2019-03-18T03:30:53.375Z,2.37
2019-03-18T03:33:24.732Z,2.36
2019-03-18T03:35:56.173Z,2.38
2019-03-18T03:38:27.537Z,2.35
2019-03-18T03:40:58.886Z,2.23
2019-03-18T03:43:30.242Z,2.27
2019-03-18T03:46:01.533Z,2.29
2019-03-18T03:48:32.974Z,2.19
2019-03-18T03:51:04.290Z,2.16
2019-03-18T03:53:35.587Z,2.11
2019-03-18T03:56:08.709Z,2.14
2019-03-18T03:58:39.998Z,2.12
2019-03-18T04:01:11.335Z,2.11
2019-03-18T04:03:42.704Z,2.08
2019-03-18T04:06:13.986Z,2.05
2019-03-18T04:08:45.306Z,2.17
2019-03-18T04:11:16.686Z,2.27
2019-03-18T04:13:47.790Z,2.38
2019-03-18T04:16:19.096Z,2.56
2019-03-18T04:18:50.355Z,2.65
2019-03-18T04:21:22.633Z,2.75
2019-03-18T04:23:53.922Z,2.91
2019-03-18T04:26:26.315Z,2.97
2019-03-18T04:28:57.584Z,3.23
2019-03-18T04:31:28.869Z,3.52
2019-03-18T04:34:00.558Z,3.60
2019-03-18T04:36:32.064Z,3.47
2019-03-18T04:39:04.658Z,3.50
2019-03-18T04:41:35.898Z,3.77
2019-03-18T04:44:07.761Z,3.91
2019-03-18T04:46:39.517Z,3.97
2019-03-18T04:49:11.277Z,4.13
2019-03-18T04:51:42.722Z,4.23
2019-03-18T04:54:15.095Z,4.27
2019-03-18T04:56:46.862Z,4.47
2019-03-18T04:59:18.613Z,4.59
2019-03-18T05:01:50.472Z,4.65
2019-03-18T05:04:22.055Z,4.83
2019-03-18T05:06:53.478Z,4.99
2019-03-18T05:09:25.136Z,5.32
2019-03-18T05:11:56.723Z,5.54
2019-03-18T05:14:27.921Z,5.78
2019-03-18T05:16:59.492Z,6.14
2019-03-18T05:19:30.749Z,6.41
2019-03-18T05:22:02.089Z,6.39
2019-03-18T05:24:33.368Z,6.45
2019-03-18T05:27:04.780Z,6.58
2019-03-18T05:29:36.338Z,6.57
2019-03-18T05:32:07.682Z,6.43
2019-03-18T05:34:39.305Z,6.72
2019-03-18T05:37:10.494Z,6.82
2019-03-18T05:39:41.826Z,6.97
2019-03-18T05:42:13.020Z,7.23
2019-03-18T05:44:44.278Z,7.07
2019-03-18T05:47:15.617Z,7.56
2019-03-18T05:49:47.024Z,7.06
2019-03-18T05:52:18.378Z,6.94
2019-03-18T05:54:49.696Z,7.45
2019-03-18T05:57:20.973Z,7.41
2019-03-18T05:59:52.231Z,7.88
2019-03-18T06:02:23.785Z,8.03
2019-03-18T06:04:55.476Z,9.04
2019-03-18T06:07:27.071Z,9.74
2019-03-18T06:09:58.774Z,8.64
2019-03-18T06:12:30.381Z,8.84
2019-03-18T06:15:02.247Z,9.83
2019-03-18T06:17:34.005Z,10.34
2019-03-18T06:20:08.232Z,9.54
2019-03-18T06:22:39.624Z,9.87
2019-03-18T06:25:11.208Z,9.66
2019-03-18T06:27:42.917Z,10.34
2019-03-18T06:30:15.490Z,10.65
2019-03-18T06:32:46.778Z,10.67
2019-03-18T06:35:20.546Z,8.56
2019-03-18T06:37:51.323Z,9.32
2019-03-18T06:40:22.702Z,10.59
2019-03-18T06:42:54.369Z,12.05
2019-03-18T06:45:26.219Z,11.71
2019-03-18T06:48:04.744Z,11.81
2019-03-18T06:50:30.865Z,11.87
2019-03-18T06:53:02.720Z,12.31
2019-03-18T06:55:34.484Z,11.69
2019-03-18T06:58:06.234Z,12.42
2019-03-18T07:00:37.796Z,12.25
2019-03-18T07:03:09.187Z,11.71
2019-03-18T07:05:40.485Z,11.44
2019-03-18T07:08:11.766Z,11.35
2019-03-18T07:10:44.155Z,12.08
2019-03-18T07:13:15.970Z,12.26
2019-03-18T07:15:47.713Z,11.45
2019-03-18T07:18:19.376Z,11.51
2019-03-18T07:20:51.232Z,11.36
2019-03-18T07:23:22.778Z,11.11
2019-03-18T07:25:55.993Z,9.61
2019-03-18T07:28:27.362Z,10.76
2019-03-18T07:30:58.616Z,10.69
2019-03-18T07:33:30.224Z,11.50
2019-03-18T07:36:01.986Z,11.27
2019-03-18T07:38:33.745Z,11.57
2019-03-18T07:41:05.392Z,11.80
2019-03-18T07:43:37.265Z,11.79
2019-03-18T07:46:09.015Z,11.13
2019-03-18T07:48:40.651Z,11.38
2019-03-18T07:51:12.232Z,11.98
2019-03-18T07:53:44.029Z,12.03
2019-03-18T07:56:15.877Z,12.00
2019-03-18T07:58:49.061Z,12.46
2019-03-18T08:01:19.905Z,13.18
2019-03-18T08:03:51.549Z,12.97
2019-03-18T08:06:23.392Z,12.70
2019-03-18T08:08:55.166Z,13.41
2019-03-18T08:11:26.848Z,14.04
2019-03-18T08:13:58.454Z,14.58
2019-03-18T08:16:30.223Z,15.83
2019-03-18T08:19:01.921Z,15.96
2019-03-18T08:21:33.330Z,14.94
2019-03-18T08:24:04.659Z,15.26
2019-03-18T08:26:36.011Z,15.93
2019-03-18T08:29:07.424Z,14.70
2019-03-18T08:31:39.725Z,15.65
2019-03-18T08:34:11.043Z,15.56
2019-03-18T08:36:42.451Z,16.29
2019-03-18T08:39:13.809Z,15.51
2019-03-18T08:41:45.096Z,16.19
2019-03-18T08:44:16.502Z,14.34
2019-03-18T08:46:47.767Z,14.38
2019-03-18T08:49:20.031Z,15.13
2019-03-18T08:51:51.344Z,14.77
2019-03-18T08:54:22.694Z,14.03
2019-03-18T08:56:54.051Z,14.10
2019-03-18T08:59:25.377Z,14.44
2019-03-18T09:01:56.732Z,14.12
2019-03-18T09:04:28.186Z,14.11
2019-03-18T09:06:59.758Z,13.84
2019-03-18T09:09:31.138Z,14.87
2019-03-18T09:12:02.429Z,14.65
2019-03-18T09:14:33.772Z,13.99
2019-03-18T09:17:05.340Z,13.02
2019-03-18T09:19:37.009Z,14.47
2019-03-18T09:22:08.651Z,14.36
2019-03-18T09:24:40.521Z,13.45
2019-03-18T09:27:12.271Z,15.21
2019-03-18T09:29:44.049Z,15.40
2019-03-18T09:32:15.662Z,14.18
2019-03-18T09:34:47.387Z,13.95
2019-03-18T09:37:19.161Z,14.97
2019-03-18T09:39:50.529Z,15.96
2019-03-18T09:42:21.797Z,14.67
2019-03-18T09:44:53.042Z,14.14
2019-03-18T09:47:24.356Z,14.76
2019-03-18T09:49:56.982Z,15.37
2019-03-18T09:52:28.272Z,15.66
2019-03-18T09:54:59.526Z,15.90
2019-03-18T09:57:30.744Z,15.17
2019-03-18T10:00:01.961Z,15.16
2019-03-18T10:02:33.246Z,15.21
2019-03-18T10:05:05.941Z,13.96
2019-03-18T10:07:39.698Z,14.46
2019-03-18T10:10:11.628Z,15.27
2019-03-18T10:12:42.758Z,14.42
2019-03-18T10:15:18.327Z,15.69
2019-03-18T10:17:49.574Z,15.72
2019-03-18T10:20:22.761Z,15.90
2019-03-18T10:22:55.614Z,15.00
2019-03-18T10:25:26.143Z,14.56
2019-03-18T10:27:57.408Z,15.39
2019-03-18T10:30:28.903Z,16.31
2019-03-18T10:33:00.319Z,16.82
2019-03-18T10:35:31.509Z,16.75
2019-03-18T10:38:05.689Z,16.38
2019-03-18T10:40:36.947Z,15.65
2019-03-18T10:43:08.292Z,15.66
2019-03-18T10:45:40.469Z,14.63
2019-03-18T10:48:12.150Z,15.18
2019-03-18T10:50:43.475Z,15.71
2019-03-18T10:53:14.733Z,15.68
2019-03-18T10:55:45.870Z,15.83
2019-03-18T10:58:18.210Z,15.16
2019-03-18T11:00:49.728Z,15.44
2019-03-18T11:03:21.101Z,14.80
2019-03-18T11:05:52.478Z,15.46
2019-03-18T11:08:24.256Z,14.90
2019-03-18T11:10:55.474Z,14.54
2019-03-18T11:13:26.708Z,15.41
2019-03-18T11:15:59.347Z,16.19
2019-03-18T11:18:30.708Z,16.06
2019-03-18T11:21:02.424Z,15.61
2019-03-18T11:23:34.065Z,15.96
2019-03-18T11:26:05.839Z,14.70
2019-03-18T11:28:37.487Z,14.76
2019-03-18T11:31:09.098Z,15.24
2019-03-18T11:33:40.703Z,15.24
2019-03-18T11:36:12.243Z,14.90
2019-03-18T11:38:43.859Z,15.20
2019-03-18T11:41:17.525Z,14.84
2019-03-18T11:43:48.441Z,14.57
2019-03-18T11:46:21.124Z,15.18
2019-03-18T11:48:52.366Z,15.26
2019-03-18T11:51:26.581Z,15.20
2019-03-18T11:53:58.247Z,15.37
2019-03-18T11:56:29.749Z,15.33
2019-03-18T11:59:00.837Z,15.67
2019-03-18T12:01:32.054Z,15.68
2019-03-18T12:04:03.424Z,14.71
2019-03-18T12:06:35.090Z,14.74
2019-03-18T12:09:06.988Z,14.72
2019-03-18T12:11:38.921Z,14.02
2019-03-18T12:14:10.524Z,13.72
2019-03-18T12:16:41.795Z,14.13
2019-03-18T12:19:12.925Z,13.73
2019-03-18T12:21:44.301Z,13.54
2019-03-18T12:24:15.660Z,13.64
2019-03-18T12:26:49.203Z,13.38
2019-03-18T12:29:19.439Z,13.36
2019-03-18T12:31:50.560Z,13.73
2019-03-18T12:34:24.066Z,13.89
2019-03-18T12:36:56.584Z,14.16
2019-03-18T12:39:29.067Z,14.04
2019-03-18T12:42:00.562Z,14.17
2019-03-18T12:44:31.697Z,14.04
2019-03-18T12:47:02.974Z,13.92
2019-03-18T12:49:34.307Z,13.07
2019-03-18T12:52:05.546Z,13.63
2019-03-18T12:54:36.851Z,13.75
2019-03-18T12:57:08.122Z,13.52
2019-03-18T12:59:39.282Z,13.66
2019-03-18T13:02:10.502Z,13.79
2019-03-18T13:04:42.751Z,13.74
2019-03-18T13:07:14.407Z,13.88
2019-03-18T13:09:46.011Z,13.64
2019-03-18T13:12:17.475Z,13.96
2019-03-18T13:14:48.919Z,13.57
2019-03-18T13:17:20.481Z,13.65
2019-03-18T13:19:51.829Z,13.48
2019-03-18T13:22:22.938Z,13.55
2019-03-18T13:24:54.100Z,13.31
2019-03-18T13:27:25.684Z,13.57
2019-03-18T13:29:57.045Z,13.44
2019-03-18T13:32:28.312Z,13.04
2019-03-18T13:34:59.644Z,12.64
2019-03-18T13:37:33.486Z,12.89
2019-03-18T13:40:10.199Z,12.77
2019-03-18T13:42:41.904Z,12.66
2019-03-18T13:45:21.330Z,12.84
2019-03-18T13:47:52.680Z,12.51
2019-03-18T13:50:24.335Z,12.57
2019-03-18T13:52:56.302Z,12.61
2019-03-18T13:55:27.745Z,12.47
2019-03-18T13:57:59.830Z,12.60
2019-03-18T14:00:31.495Z,12.48
2019-03-18T14:03:03.231Z,12.44
2019-03-18T14:05:34.510Z,12.52
2019-03-18T14:08:05.788Z,12.55
2019-03-18T14:10:37.268Z,12.52
2019-03-18T14:13:08.931Z,12.44
2019-03-18T14:15:40.694Z,12.41
2019-03-18T14:18:12.754Z,12.32
2019-03-18T14:20:44.516Z,12.28
2019-03-18T14:23:16.274Z,12.31
2019-03-18T14:25:50.900Z,12.14
2019-03-18T14:28:22.593Z,12.17
2019-03-18T14:30:54.424Z,12.11
2019-03-18T14:33:28.320Z,12.06
2019-03-18T14:36:00.261Z,11.99
2019-03-18T14:38:31.642Z,11.96
2019-03-18T14:41:04.154Z,11.90
2019-03-18T14:43:35.471Z,11.85
2019-03-18T14:46:06.794Z,11.85
2019-03-18T14:48:38.245Z,11.81
2019-03-18T14:51:09.658Z,11.84
2019-03-18T14:53:41.067Z,11.81
2019-03-18T14:56:12.400Z,11.72
2019-03-18T14:58:43.735Z,11.62
2019-03-18T15:01:15.212Z,11.63
2019-03-18T15:03:46.501Z,11.57
2019-03-18T15:06:17.850Z,11.56
2019-03-18T15:08:49.190Z,11.58
2019-03-18T15:11:20.471Z,11.46
2019-03-18T15:13:51.761Z,11.46
2019-03-18T15:16:23.038Z,11.41
2019-03-18T15:18:55.256Z,11.38
2019-03-18T15:21:26.633Z,11.34
2019-03-18T15:23:57.861Z,11.25
2019-03-18T15:26:29.123Z,11.21
2019-03-18T15:29:00.453Z,11.15
2019-03-18T15:31:31.649Z,11.11
2019-03-18T15:34:02.985Z,11.02
2019-03-18T15:36:34.361Z,11.08
2019-03-18T15:39:06.992Z,11.01
2019-03-18T15:41:39.947Z,10.98
2019-03-18T15:44:11.238Z,10.81
2019-03-18T15:46:42.649Z,10.84
2019-03-18T15:49:13.942Z,10.77
2019-03-18T15:51:45.300Z,10.73
2019-03-18T15:54:16.763Z,10.64
2019-03-18T15:56:48.292Z,10.54
2019-03-18T15:59:20.163Z,10.57
2019-03-18T16:01:51.683Z,10.58
2019-03-18T16:04:23.060Z,10.45
2019-03-18T16:06:54.402Z,10.33
2019-03-18T16:09:25.739Z,10.26
2019-03-18T16:11:57.126Z,10.36
2019-03-18T16:14:28.509Z,10.23
2019-03-18T16:17:02.178Z,10.31
2019-03-18T16:19:32.875Z,10.33
2019-03-18T16:22:04.284Z,10.13
2019-03-18T16:24:35.650Z,10.23
2019-03-18T16:27:07.065Z,10.26
2019-03-18T16:29:38.480Z,10.24
2019-03-18T16:32:11.670Z,10.19
2019-03-18T16:34:43.295Z,10.27
2019-03-18T16:37:14.548Z,10.23
2019-03-18T16:39:45.832Z,10.17
2019-03-18T16:42:17.185Z,10.20
2019-03-18T16:44:48.424Z,10.15
2019-03-18T16:47:19.737Z,10.03
2019-03-18T16:49:51.194Z,9.92
2019-03-18T16:52:34.999Z,10.06
2019-03-18T16:54:56.028Z,9.97
2019-03-18T16:57:27.583Z,9.90
2019-03-18T16:59:58.849Z,9.94
2019-03-18T17:02:30.223Z,9.87
2019-03-18T17:05:01.404Z,9.78
2019-03-18T17:07:32.677Z,9.88
2019-03-18T17:10:06.701Z,9.76
2019-03-18T17:12:38.031Z,9.70
2019-03-18T17:15:11.513Z,9.73
2019-03-18T17:17:42.858Z,9.75
2019-03-18T17:20:16.315Z,9.62
2019-03-18T17:22:50.178Z,9.55
2019-03-18T17:25:28.663Z,9.56
2019-03-18T17:27:59.979Z,9.57
2019-03-18T17:30:31.332Z,9.54
2019-03-18T17:33:02.547Z,9.61
2019-03-18T17:35:33.819Z,9.61
2019-03-18T17:38:05.092Z,9.44
2019-03-18T17:40:36.421Z,9.25
2019-03-18T17:43:07.724Z,9.22
2019-03-18T17:45:39.213Z,9.13
2019-03-18T17:48:10.535Z,9.12
2019-03-18T17:50:41.831Z,9.06
2019-03-18T17:53:13.169Z,9.18
2019-03-18T17:55:44.555Z,9.11
2019-03-18T17:58:15.819Z,9.19
2019-03-18T18:00:48.711Z,9.30
2019-03-18T18:03:19.372Z,9.27
2019-03-18T18:05:51.587Z,9.28
2019-03-18T18:08:23.059Z,9.39
2019-03-18T18:10:54.325Z,9.39
2019-03-18T18:13:25.526Z,9.31
2019-03-18T18:15:56.864Z,9.23
2019-03-18T18:18:28.288Z,9.15
2019-03-18T18:20:59.567Z,9.13
2019-03-18T18:23:30.942Z,8.99
2019-03-18T18:26:02.417Z,8.98
2019-03-18T18:28:33.708Z,8.94
2019-03-18T18:31:05.390Z,8.89
2019-03-18T18:33:36.813Z,8.90
2019-03-18T18:36:08.047Z,8.87
2019-03-18T18:38:39.540Z,8.87
2019-03-18T18:41:12.550Z,8.83
2019-03-18T18:43:43.840Z,8.77
2019-03-18T18:46:16.389Z,8.65
2019-03-18T18:48:48.616Z,8.68
2019-03-18T18:51:19.979Z,8.62
2019-03-18T18:53:51.150Z,8.55
2019-03-18T18:56:22.403Z,8.47
2019-03-18T18:58:54.554Z,8.42
2019-03-18T19:01:25.825Z,8.47
2019-03-18T19:03:58.224Z,8.46
2019-03-18T19:06:29.450Z,8.31
2019-03-18T19:09:00.843Z,8.24
2019-03-18T19:11:32.306Z,8.27
2019-03-18T19:14:03.841Z,8.28
2019-03-18T19:16:35.092Z,8.22
2019-03-18T19:19:06.290Z,8.14
2019-03-18T19:21:37.839Z,8.06
2019-03-18T19:24:09.075Z,7.96
2019-03-18T19:26:40.752Z,7.91
2019-03-18T19:29:13.207Z,8.00
2019-03-18T19:31:44.545Z,7.88
2019-03-18T19:34:15.877Z,7.94
2019-03-18T19:36:47.181Z,7.85
2019-03-18T19:39:18.354Z,7.87
2019-03-18T19:41:49.681Z,7.75
2019-03-18T19:44:21.009Z,7.71
2019-03-18T19:46:52.242Z,7.81
2019-03-18T19:49:23.609Z,7.70
2019-03-18T19:51:54.847Z,7.74
2019-03-18T19:54:26.025Z,7.48
2019-03-18T19:56:58.320Z,7.36
2019-03-18T19:59:29.545Z,7.29
2019-03-18T20:02:01.117Z,7.23
2019-03-18T20:04:32.376Z,7.17
2019-03-18T20:07:03.790Z,7.09
2019-03-18T20:09:35.144Z,7.00
2019-03-18T20:12:06.396Z,6.79
2019-03-18T20:14:37.594Z,6.83
2019-03-18T20:17:08.871Z,7.01
2019-03-18T20:19:40.137Z,6.87
2019-03-18T20:22:11.430Z,6.87
2019-03-18T20:24:42.819Z,6.92
2019-03-18T20:27:14.234Z,6.89
2019-03-18T20:29:45.336Z,6.86
2019-03-18T20:32:16.657Z,6.80
2019-03-18T20:34:48.060Z,6.89
2019-03-18T20:37:19.402Z,6.76
2019-03-18T20:39:50.758Z,7.05
2019-03-18T20:42:22.072Z,6.93
2019-03-18T20:44:53.856Z,6.90
2019-03-18T20:47:25.277Z,6.98
2019-03-18T20:49:56.598Z,6.93
2019-03-18T20:52:27.934Z,6.71
2019-03-18T20:54:59.427Z,6.67
2019-03-18T20:57:31.261Z,6.87
2019-03-18T21:00:02.626Z,6.68
2019-03-18T21:02:34.156Z,6.48
2019-03-18T21:05:07.571Z,6.39
2019-03-18T21:07:38.774Z,6.43
2019-03-18T21:10:12.783Z,6.32
2019-03-18T21:12:44.151Z,6.37
2019-03-18T21:15:17.393Z,6.17
2019-03-18T21:17:48.694Z,6.11
2019-03-18T21:20:21.218Z,5.99
2019-03-18T21:22:52.479Z,6.06
2019-03-18T21:25:23.777Z,6.06
2019-03-18T21:27:55.088Z,6.10
2019-03-18T21:30:26.419Z,6.06
2019-03-18T21:32:57.674Z,6.11
2019-03-18T21:35:28.947Z,6.05
2019-03-18T21:38:00.307Z,5.98
2019-03-18T21:40:31.644Z,6.05
2019-03-18T21:43:02.912Z,5.85
2019-03-18T21:45:34.205Z,5.92
2019-03-18T21:48:05.394Z,5.94
2019-03-18T21:50:36.502Z,5.84
2019-03-18T21:53:07.852Z,5.74
2019-03-18T21:55:39.111Z,5.78
2019-03-18T21:58:10.421Z,5.86
2019-03-18T22:00:41.751Z,5.84
2019-03-18T22:03:13.076Z,5.88
2019-03-18T22:05:44.366Z,5.84
2019-03-18T22:08:15.610Z,5.83
2019-03-18T22:10:46.799Z,5.80
2019-03-18T22:13:18.113Z,5.78
2019-03-18T22:15:49.421Z,5.73
2019-03-18T22:18:22.298Z,5.75
2019-03-18T22:20:53.651Z,5.66
2019-03-18T22:23:24.885Z,5.65
2019-03-18T22:25:56.100Z,5.55
2019-03-18T22:28:27.412Z,5.57
2019-03-18T22:30:58.662Z,5.52
2019-03-18T22:33:31.021Z,5.42
2019-03-18T22:36:02.339Z,5.47
2019-03-18T22:38:33.768Z,5.30
2019-03-18T22:41:05.244Z,5.31
2019-03-18T22:43:36.508Z,5.15
2019-03-18T22:46:07.802Z,5.29
2019-03-18T22:48:38.916Z,5.14
2019-03-18T22:51:10.325Z,5.16
2019-03-18T22:53:41.612Z,5.27
2019-03-18T22:56:12.873Z,5.30
2019-03-18T22:58:44.079Z,5.32
2019-03-18T23:01:16.748Z,5.12
2019-03-18T23:03:47.958Z,5.30
2019-03-18T23:06:19.202Z,5.07
2019-03-18T23:08:50.532Z,5.28
2019-03-18T23:11:22.082Z,5.25
2019-03-18T23:13:53.321Z,5.23
2019-03-18T23:16:24.592Z,5.20
2019-03-18T23:18:55.912Z,5.20
2019-03-18T23:21:27.572Z,5.09
2019-03-18T23:23:59.428Z,5.14
2019-03-18T23:26:30.784Z,5.18
2019-03-18T23:29:01.980Z,5.06
2019-03-18T23:31:33.056Z,5.07
2019-03-18T23:34:04.303Z,5.11
2019-03-18T23:36:36.786Z,5.09
2019-03-18T23:39:08.607Z,5.07
2019-03-18T23:41:39.879Z,5.03
2019-03-18T23:44:11.013Z,4.93
2019-03-18T23:46:42.182Z,4.80
2019-03-18T23:49:13.306Z,4.77
2019-03-18T23:51:44.490Z,4.72
2019-03-18T23:54:15.736Z,4.65
2019-03-18T23:56:47.009Z,4.67
2019-03-18T23:59:18.169Z,4.60
